sensor_id;sensor_type;location;lat;lon;timestamp;P1;durP1;ratioP1;P2;durP2;ratioP2
20110;SDS011;10216;42.658;23.248;2023-02-13T00:00:51;52.90;;;25.40;;
20110;SDS011;10216;42.658;23.248;2023-02-13T00:03:17;48.13;;;25.73;;
20110;SDS011;10216;42.658;23.248;2023-02-13T00:05:42;49.07;;;25.63;;
20110;SDS011;10216;42.658;23.248;2023-02-13T00:08:07;48.40;;;24.63;;
20110;SDS011;10216;42.658;23.248;2023-02-13T00:10:32;51.53;;;26.00;;
20110;SDS011;10216;42.658;23.248;2023-02-13T00:12:58;41.87;;;23.87;;
20110;SDS011;10216;42.658;23.248;2023-02-13T00:15:23;46.67;;;23.50;;
20110;SDS011;10216;42.658;23.248;2023-02-13T00:17:48;47.33;;;24.43;;
20110;SDS011;10216;42.658;23.248;2023-02-13T00:20:13;48.77;;;25.87;;
20110;SDS011;10216;42.658;23.248;2023-02-13T00:22:39;47.77;;;25.10;;
20110;SDS011;10216;42.658;23.248;2023-02-13T00:25:05;48.10;;;25.37;;
20110;SDS011;10216;42.658;23.248;2023-02-13T00:27:30;51.47;;;24.33;;
20110;SDS011;10216;42.658;23.248;2023-02-13T00:29:55;51.03;;;26.50;;
20110;SDS011;10216;42.658;23.248;2023-02-13T00:32:21;51.53;;;25.83;;
20110;SDS011;10216;42.658;23.248;2023-02-13T00:34:46;52.73;;;25.77;;
20110;SDS011;10216;42.658;23.248;2023-02-13T00:37:11;52.20;;;26.27;;
20110;SDS011;10216;42.658;23.248;2023-02-13T00:39:36;51.67;;;27.20;;
20110;SDS011;10216;42.658;23.248;2023-02-13T00:42:02;49.30;;;26.23;;
20110;SDS011;10216;42.658;23.248;2023-02-13T00:44:27;53.33;;;26.47;;
20110;SDS011;10216;42.658;23.248;2023-02-13T00:46:52;46.37;;;25.43;;
20110;SDS011;10216;42.658;23.248;2023-02-13T00:49:17;47.87;;;26.17;;
20110;SDS011;10216;42.658;23.248;2023-02-13T00:51:43;49.50;;;25.83;;
20110;SDS011;10216;42.658;23.248;2023-02-13T00:54:08;51.73;;;26.13;;
20110;SDS011;10216;42.658;23.248;2023-02-13T00:56:33;56.80;;;26.83;;
20110;SDS011;10216;42.658;23.248;2023-02-13T00:58:58;55.07;;;27.97;;
20110;SDS011;10216;42.658;23.248;2023-02-13T01:01:24;43.80;;;24.23;;
20110;SDS011;10216;42.658;23.248;2023-02-13T01:03:49;47.73;;;24.17;;
20110;SDS011;10216;42.658;23.248;2023-02-13T01:06:14;49.07;;;25.70;;
20110;SDS011;10216;42.658;23.248;2023-02-13T01:08:40;49.03;;;25.90;;
20110;SDS011;10216;42.658;23.248;2023-02-13T01:11:05;58.60;;;25.80;;
20110;SDS011;10216;42.658;23.248;2023-02-13T01:13:31;47.07;;;25.43;;
20110;SDS011;10216;42.658;23.248;2023-02-13T01:15:56;48.83;;;26.33;;
20110;SDS011;10216;42.658;23.248;2023-02-13T01:18:21;48.33;;;26.43;;
20110;SDS011;10216;42.658;23.248;2023-02-13T01:21:00;50.03;;;28.00;;
20110;SDS011;10216;42.658;23.248;2023-02-13T01:23:28;51.47;;;27.73;;
20110;SDS011;10216;42.658;23.248;2023-02-13T01:25:53;55.20;;;31.00;;
20110;SDS011;10216;42.658;23.248;2023-02-13T01:28:19;58.57;;;31.33;;
20110;SDS011;10216;42.658;23.248;2023-02-13T01:30:44;55.50;;;28.57;;
20110;SDS011;10216;42.658;23.248;2023-02-13T01:33:10;59.93;;;32.67;;
20110;SDS011;10216;42.658;23.248;2023-02-13T01:35:38;62.33;;;32.87;;
20110;SDS011;10216;42.658;23.248;2023-02-13T01:38:03;65.00;;;34.90;;
20110;SDS011;10216;42.658;23.248;2023-02-13T01:40:28;65.93;;;37.47;;
20110;SDS011;10216;42.658;23.248;2023-02-13T01:42:54;70.57;;;37.20;;
20110;SDS011;10216;42.658;23.248;2023-02-13T01:45:23;60.43;;;32.30;;
20110;SDS011;10216;42.658;23.248;2023-02-13T01:52:49;68.87;;;34.77;;
20110;SDS011;10216;42.658;23.248;2023-02-13T01:55:16;61.00;;;34.20;;
20110;SDS011;10216;42.658;23.248;2023-02-13T01:57:42;57.93;;;31.90;;
20110;SDS011;10216;42.658;23.248;2023-02-13T02:00:10;60.17;;;34.23;;
20110;SDS011;10216;42.658;23.248;2023-02-13T02:02:36;67.60;;;36.03;;
20110;SDS011;10216;42.658;23.248;2023-02-13T02:05:03;66.30;;;36.23;;
20110;SDS011;10216;42.658;23.248;2023-02-13T02:07:31;67.90;;;37.57;;
20110;SDS011;10216;42.658;23.248;2023-02-13T02:10:02;82.43;;;43.33;;
20110;SDS011;10216;42.658;23.248;2023-02-13T02:12:51;79.80;;;41.40;;
20110;SDS011;10216;42.658;23.248;2023-02-13T02:15:14;78.37;;;41.93;;
20110;SDS011;10216;42.658;23.248;2023-02-13T02:17:39;72.37;;;38.40;;
20110;SDS011;10216;42.658;23.248;2023-02-13T02:25:23;67.23;;;37.37;;
20110;SDS011;10216;42.658;23.248;2023-02-13T02:36:14;65.83;;;36.67;;
20110;SDS011;10216;42.658;23.248;2023-02-13T02:41:13;69.53;;;38.70;;
20110;SDS011;10216;42.658;23.248;2023-02-13T02:46:32;72.13;;;39.73;;
20110;SDS011;10216;42.658;23.248;2023-02-13T02:49:03;62.17;;;35.87;;
20110;SDS011;10216;42.658;23.248;2023-02-13T02:52:13;70.97;;;38.23;;
20110;SDS011;10216;42.658;23.248;2023-02-13T02:54:42;60.70;;;34.87;;
20110;SDS011;10216;42.658;23.248;2023-02-13T02:57:29;63.83;;;36.27;;
20110;SDS011;10216;42.658;23.248;2023-02-13T03:00:14;68.77;;;36.60;;
20110;SDS011;10216;42.658;23.248;2023-02-13T03:02:58;67.63;;;37.93;;
20110;SDS011;10216;42.658;23.248;2023-02-13T03:05:43;69.07;;;38.47;;
20110;SDS011;10216;42.658;23.248;2023-02-13T03:08:28;70.00;;;36.83;;
20110;SDS011;10216;42.658;23.248;2023-02-13T03:11:12;67.83;;;35.50;;
20110;SDS011;10216;42.658;23.248;2023-02-13T03:14:01;63.47;;;34.00;;
20110;SDS011;10216;42.658;23.248;2023-02-13T03:16:27;71.63;;;38.83;;
20110;SDS011;10216;42.658;23.248;2023-02-13T03:19:16;69.07;;;38.30;;
20110;SDS011;10216;42.658;23.248;2023-02-13T03:30:47;66.47;;;36.67;;
20110;SDS011;10216;42.658;23.248;2023-02-13T03:33:09;60.20;;;33.93;;
20110;SDS011;10216;42.658;23.248;2023-02-13T03:36:00;59.10;;;34.37;;
20110;SDS011;10216;42.658;23.248;2023-02-13T03:39:02;64.87;;;34.30;;
20110;SDS011;10216;42.658;23.248;2023-02-13T03:41:39;64.23;;;36.00;;
20110;SDS011;10216;42.658;23.248;2023-02-13T03:46:32;64.23;;;36.33;;
20110;SDS011;10216;42.658;23.248;2023-02-13T03:48:59;62.60;;;34.73;;
20110;SDS011;10216;42.658;23.248;2023-02-13T03:51:48;63.43;;;34.50;;
20110;SDS011;10216;42.658;23.248;2023-02-13T03:54:32;64.47;;;36.67;;
20110;SDS011;10216;42.658;23.248;2023-02-13T03:57:18;63.07;;;34.13;;
20110;SDS011;10216;42.658;23.248;2023-02-13T04:00:03;60.73;;;35.17;;
20110;SDS011;10216;42.658;23.248;2023-02-13T04:02:32;57.33;;;33.57;;
20110;SDS011;10216;42.658;23.248;2023-02-13T04:07:55;59.80;;;35.07;;
20110;SDS011;10216;42.658;23.248;2023-02-13T04:10:20;57.23;;;34.17;;
20110;SDS011;10216;42.658;23.248;2023-02-13T04:15:14;61.67;;;34.07;;
20110;SDS011;10216;42.658;23.248;2023-02-13T04:17:57;62.17;;;35.83;;
20110;SDS011;10216;42.658;23.248;2023-02-13T04:20:25;60.77;;;34.17;;
20110;SDS011;10216;42.658;23.248;2023-02-13T04:22:51;62.93;;;34.13;;
20110;SDS011;10216;42.658;23.248;2023-02-13T04:25:16;67.40;;;36.30;;
20110;SDS011;10216;42.658;23.248;2023-02-13T04:27:42;66.73;;;37.07;;
20110;SDS011;10216;42.658;23.248;2023-02-13T04:30:08;60.30;;;35.10;;
20110;SDS011;10216;42.658;23.248;2023-02-13T04:32:33;64.70;;;35.33;;
20110;SDS011;10216;42.658;23.248;2023-02-13T04:34:58;62.50;;;35.03;;
20110;SDS011;10216;42.658;23.248;2023-02-13T04:37:23;65.77;;;37.23;;
20110;SDS011;10216;42.658;23.248;2023-02-13T04:39:49;62.30;;;35.17;;
20110;SDS011;10216;42.658;23.248;2023-02-13T04:42:14;64.00;;;35.47;;
20110;SDS011;10216;42.658;23.248;2023-02-13T04:44:39;60.00;;;33.73;;
20110;SDS011;10216;42.658;23.248;2023-02-13T04:47:04;63.00;;;35.87;;
20110;SDS011;10216;42.658;23.248;2023-02-13T04:49:30;58.93;;;33.43;;
20110;SDS011;10216;42.658;23.248;2023-02-13T04:51:55;60.60;;;35.70;;
20110;SDS011;10216;42.658;23.248;2023-02-13T04:54:20;59.30;;;34.70;;
20110;SDS011;10216;42.658;23.248;2023-02-13T04:56:45;60.97;;;34.33;;
20110;SDS011;10216;42.658;23.248;2023-02-13T04:59:11;69.43;;;36.83;;
20110;SDS011;10216;42.658;23.248;2023-02-13T05:01:36;65.07;;;37.53;;
20110;SDS011;10216;42.658;23.248;2023-02-13T05:04:02;63.47;;;34.00;;
20110;SDS011;10216;42.658;23.248;2023-02-13T05:06:28;64.33;;;35.77;;
20110;SDS011;10216;42.658;23.248;2023-02-13T05:08:53;67.23;;;35.47;;
20110;SDS011;10216;42.658;23.248;2023-02-13T05:11:18;65.67;;;34.07;;
20110;SDS011;10216;42.658;23.248;2023-02-13T05:13:43;56.60;;;31.83;;
20110;SDS011;10216;42.658;23.248;2023-02-13T05:16:09;62.23;;;34.87;;
20110;SDS011;10216;42.658;23.248;2023-02-13T05:18:34;58.67;;;33.33;;
20110;SDS011;10216;42.658;23.248;2023-02-13T05:20:59;71.87;;;38.63;;
20110;SDS011;10216;42.658;23.248;2023-02-13T05:23:43;65.47;;;32.53;;
20110;SDS011;10216;42.658;23.248;2023-02-13T05:26:08;57.07;;;32.97;;
20110;SDS011;10216;42.658;23.248;2023-02-13T05:28:33;60.20;;;34.37;;
20110;SDS011;10216;42.658;23.248;2023-02-13T05:31:17;60.07;;;35.10;;
20110;SDS011;10216;42.658;23.248;2023-02-13T05:33:43;58.13;;;32.63;;
20110;SDS011;10216;42.658;23.248;2023-02-13T05:36:08;57.10;;;32.07;;
20110;SDS011;10216;42.658;23.248;2023-02-13T05:38:33;55.63;;;32.60;;
20110;SDS011;10216;42.658;23.248;2023-02-13T05:40:59;53.80;;;29.77;;
20110;SDS011;10216;42.658;23.248;2023-02-13T05:43:24;56.40;;;32.53;;
20110;SDS011;10216;42.658;23.248;2023-02-13T05:45:49;58.03;;;31.87;;
20110;SDS011;10216;42.658;23.248;2023-02-13T05:48:16;53.53;;;30.23;;
20110;SDS011;10216;42.658;23.248;2023-02-13T05:50:45;57.03;;;32.83;;
20110;SDS011;10216;42.658;23.248;2023-02-13T05:53:10;67.40;;;35.50;;
20110;SDS011;10216;42.658;23.248;2023-02-13T05:55:35;56.03;;;32.40;;
20110;SDS011;10216;42.658;23.248;2023-02-13T05:58:00;53.77;;;30.27;;
20110;SDS011;10216;42.658;23.248;2023-02-13T06:00:26;56.97;;;31.27;;
20110;SDS011;10216;42.658;23.248;2023-02-13T06:02:51;52.93;;;30.27;;
20110;SDS011;10216;42.658;23.248;2023-02-13T06:05:16;56.07;;;32.30;;
20110;SDS011;10216;42.658;23.248;2023-02-13T06:07:41;53.37;;;30.50;;
20110;SDS011;10216;42.658;23.248;2023-02-13T06:10:07;63.53;;;34.73;;
20110;SDS011;10216;42.658;23.248;2023-02-13T06:12:32;55.07;;;32.20;;
20110;SDS011;10216;42.658;23.248;2023-02-13T06:14:58;60.33;;;32.93;;
20110;SDS011;10216;42.658;23.248;2023-02-13T06:17:24;55.80;;;32.53;;
20110;SDS011;10216;42.658;23.248;2023-02-13T06:19:49;49.63;;;30.17;;
20110;SDS011;10216;42.658;23.248;2023-02-13T06:22:14;55.60;;;31.00;;
20110;SDS011;10216;42.658;23.248;2023-02-13T06:24:39;53.67;;;31.80;;
20110;SDS011;10216;42.658;23.248;2023-02-13T06:27:05;54.97;;;32.00;;
20110;SDS011;10216;42.658;23.248;2023-02-13T06:29:30;57.80;;;32.23;;
20110;SDS011;10216;42.658;23.248;2023-02-13T06:31:56;52.57;;;32.00;;
20110;SDS011;10216;42.658;23.248;2023-02-13T06:34:22;54.87;;;33.63;;
20110;SDS011;10216;42.658;23.248;2023-02-13T06:36:47;56.73;;;33.40;;
20110;SDS011;10216;42.658;23.248;2023-02-13T06:39:12;56.93;;;32.37;;
20110;SDS011;10216;42.658;23.248;2023-02-13T06:41:40;58.17;;;32.70;;
20110;SDS011;10216;42.658;23.248;2023-02-13T06:44:05;52.03;;;31.17;;
20110;SDS011;10216;42.658;23.248;2023-02-13T06:46:31;54.07;;;31.80;;
20110;SDS011;10216;42.658;23.248;2023-02-13T06:48:56;54.83;;;30.87;;
20110;SDS011;10216;42.658;23.248;2023-02-13T06:51:22;55.63;;;32.97;;
20110;SDS011;10216;42.658;23.248;2023-02-13T06:53:47;56.00;;;32.87;;
20110;SDS011;10216;42.658;23.248;2023-02-13T06:56:12;57.40;;;33.57;;
20110;SDS011;10216;42.658;23.248;2023-02-13T06:58:37;54.90;;;33.87;;
20110;SDS011;10216;42.658;23.248;2023-02-13T07:01:04;54.67;;;32.97;;
20110;SDS011;10216;42.658;23.248;2023-02-13T07:03:29;52.47;;;33.27;;
20110;SDS011;10216;42.658;23.248;2023-02-13T07:05:54;55.47;;;33.83;;
20110;SDS011;10216;42.658;23.248;2023-02-13T07:08:20;52.90;;;31.87;;
20110;SDS011;10216;42.658;23.248;2023-02-13T07:10:46;56.03;;;32.87;;
20110;SDS011;10216;42.658;23.248;2023-02-13T07:13:11;51.67;;;29.17;;
20110;SDS011;10216;42.658;23.248;2023-02-13T07:15:36;50.23;;;31.30;;
20110;SDS011;10216;42.658;23.248;2023-02-13T07:18:02;51.70;;;31.20;;
20110;SDS011;10216;42.658;23.248;2023-02-13T07:20:28;51.17;;;30.37;;
20110;SDS011;10216;42.658;23.248;2023-02-13T07:22:56;52.70;;;31.50;;
20110;SDS011;10216;42.658;23.248;2023-02-13T07:25:22;56.63;;;33.50;;
20110;SDS011;10216;42.658;23.248;2023-02-13T07:27:49;54.43;;;31.87;;
20110;SDS011;10216;42.658;23.248;2023-02-13T07:30:17;51.27;;;31.20;;
20110;SDS011;10216;42.658;23.248;2023-02-13T07:32:42;50.27;;;31.70;;
20110;SDS011;10216;42.658;23.248;2023-02-13T07:35:07;53.87;;;32.30;;
20110;SDS011;10216;42.658;23.248;2023-02-13T07:37:32;51.90;;;31.63;;
20110;SDS011;10216;42.658;23.248;2023-02-13T07:39:57;53.90;;;31.40;;
20110;SDS011;10216;42.658;23.248;2023-02-13T07:42:23;49.67;;;30.43;;
20110;SDS011;10216;42.658;23.248;2023-02-13T07:44:48;51.73;;;31.97;;
20110;SDS011;10216;42.658;23.248;2023-02-13T07:47:15;49.20;;;30.03;;
20110;SDS011;10216;42.658;23.248;2023-02-13T07:49:41;49.00;;;29.10;;
20110;SDS011;10216;42.658;23.248;2023-02-13T07:52:06;52.80;;;31.90;;
20110;SDS011;10216;42.658;23.248;2023-02-13T07:54:31;47.27;;;30.10;;
20110;SDS011;10216;42.658;23.248;2023-02-13T07:56:57;58.10;;;32.43;;
20110;SDS011;10216;42.658;23.248;2023-02-13T07:59:22;52.17;;;32.07;;
20110;SDS011;10216;42.658;23.248;2023-02-13T08:01:50;54.27;;;33.37;;
20110;SDS011;10216;42.658;23.248;2023-02-13T08:04:15;51.57;;;32.10;;
20110;SDS011;10216;42.658;23.248;2023-02-13T08:06:41;47.87;;;31.70;;
20110;SDS011;10216;42.658;23.248;2023-02-13T08:09:06;51.87;;;32.47;;
20110;SDS011;10216;42.658;23.248;2023-02-13T08:11:51;51.63;;;31.33;;
20110;SDS011;10216;42.658;23.248;2023-02-13T08:14:22;53.57;;;32.07;;
20110;SDS011;10216;42.658;23.248;2023-02-13T08:16:48;52.30;;;32.03;;
20110;SDS011;10216;42.658;23.248;2023-02-13T08:19:13;50.57;;;31.57;;
20110;SDS011;10216;42.658;23.248;2023-02-13T08:21:39;54.80;;;32.17;;
20110;SDS011;10216;42.658;23.248;2023-02-13T08:24:04;48.60;;;28.87;;
20110;SDS011;10216;42.658;23.248;2023-02-13T08:26:30;50.33;;;29.67;;
20110;SDS011;10216;42.658;23.248;2023-02-13T08:28:55;52.67;;;31.87;;
20110;SDS011;10216;42.658;23.248;2023-02-13T08:31:21;47.83;;;30.50;;
20110;SDS011;10216;42.658;23.248;2023-02-13T08:33:46;51.60;;;30.90;;
20110;SDS011;10216;42.658;23.248;2023-02-13T08:36:13;51.17;;;31.20;;
20110;SDS011;10216;42.658;23.248;2023-02-13T08:38:38;50.10;;;31.07;;
20110;SDS011;10216;42.658;23.248;2023-02-13T08:41:03;51.07;;;32.67;;
20110;SDS011;10216;42.658;23.248;2023-02-13T08:43:29;55.43;;;34.43;;
20110;SDS011;10216;42.658;23.248;2023-02-13T08:45:56;50.90;;;31.23;;
20110;SDS011;10216;42.658;23.248;2023-02-13T08:48:22;50.10;;;31.23;;
20110;SDS011;10216;42.658;23.248;2023-02-13T08:50:47;50.10;;;32.30;;
20110;SDS011;10216;42.658;23.248;2023-02-13T08:53:13;51.60;;;33.20;;
20110;SDS011;10216;42.658;23.248;2023-02-13T08:55:38;46.17;;;29.93;;
20110;SDS011;10216;42.658;23.248;2023-02-13T08:58:03;50.13;;;31.13;;
20110;SDS011;10216;42.658;23.248;2023-02-13T09:00:29;51.00;;;31.80;;
20110;SDS011;10216;42.658;23.248;2023-02-13T09:02:54;47.87;;;30.07;;
20110;SDS011;10216;42.658;23.248;2023-02-13T09:05:19;50.43;;;31.00;;
20110;SDS011;10216;42.658;23.248;2023-02-13T09:07:45;50.43;;;31.57;;
20110;SDS011;10216;42.658;23.248;2023-02-13T09:10:10;48.43;;;29.80;;
20110;SDS011;10216;42.658;23.248;2023-02-13T09:12:35;50.10;;;31.03;;
20110;SDS011;10216;42.658;23.248;2023-02-13T09:15:01;52.80;;;30.20;;
20110;SDS011;10216;42.658;23.248;2023-02-13T09:17:26;43.30;;;29.50;;
20110;SDS011;10216;42.658;23.248;2023-02-13T09:19:51;48.37;;;30.63;;
20110;SDS011;10216;42.658;23.248;2023-02-13T09:22:16;42.57;;;27.30;;
20110;SDS011;10216;42.658;23.248;2023-02-13T09:24:42;45.47;;;30.07;;
20110;SDS011;10216;42.658;23.248;2023-02-13T09:27:07;44.47;;;30.97;;
20110;SDS011;10216;42.658;23.248;2023-02-13T09:29:32;46.90;;;30.37;;
20110;SDS011;10216;42.658;23.248;2023-02-13T09:31:58;44.30;;;30.20;;
20110;SDS011;10216;42.658;23.248;2023-02-13T09:34:23;48.27;;;30.47;;
20110;SDS011;10216;42.658;23.248;2023-02-13T09:36:52;44.67;;;28.30;;
20110;SDS011;10216;42.658;23.248;2023-02-13T09:39:17;44.40;;;28.93;;
20110;SDS011;10216;42.658;23.248;2023-02-13T09:41:42;48.03;;;30.33;;
20110;SDS011;10216;42.658;23.248;2023-02-13T09:44:11;50.30;;;30.57;;
20110;SDS011;10216;42.658;23.248;2023-02-13T09:46:57;46.27;;;29.70;;
20110;SDS011;10216;42.658;23.248;2023-02-13T09:49:23;54.20;;;33.00;;
20110;SDS011;10216;42.658;23.248;2023-02-13T09:51:52;46.87;;;29.13;;
20110;SDS011;10216;42.658;23.248;2023-02-13T09:54:19;45.90;;;28.60;;
20110;SDS011;10216;42.658;23.248;2023-02-13T09:56:54;42.90;;;28.53;;
20110;SDS011;10216;42.658;23.248;2023-02-13T10:02:00;49.97;;;30.23;;
20110;SDS011;10216;42.658;23.248;2023-02-13T10:12:27;50.83;;;31.50;;
20110;SDS011;10216;42.658;23.248;2023-02-13T10:15:05;47.43;;;30.10;;
20110;SDS011;10216;42.658;23.248;2023-02-13T10:17:35;49.90;;;32.00;;
20110;SDS011;10216;42.658;23.248;2023-02-13T10:20:04;50.27;;;31.10;;
20110;SDS011;10216;42.658;23.248;2023-02-13T10:22:37;44.03;;;30.43;;
20110;SDS011;10216;42.658;23.248;2023-02-13T10:25:11;46.93;;;31.40;;
20110;SDS011;10216;42.658;23.248;2023-02-13T10:28:13;46.63;;;31.33;;
20110;SDS011;10216;42.658;23.248;2023-02-13T10:30:31;46.00;;;29.63;;
20110;SDS011;10216;42.658;23.248;2023-02-13T10:35:42;44.30;;;30.00;;
20110;SDS011;10216;42.658;23.248;2023-02-13T10:38:16;43.37;;;28.53;;
20110;SDS011;10216;42.658;23.248;2023-02-13T10:40:56;44.30;;;28.90;;
20110;SDS011;10216;42.658;23.248;2023-02-13T10:43:26;44.37;;;29.50;;
20110;SDS011;10216;42.658;23.248;2023-02-13T10:51:07;38.93;;;26.33;;
20110;SDS011;10216;42.658;23.248;2023-02-13T10:53:42;44.93;;;29.63;;
20110;SDS011;10216;42.658;23.248;2023-02-13T10:56:17;36.63;;;26.60;;
20110;SDS011;10216;42.658;23.248;2023-02-13T11:04:04;35.47;;;27.40;;
20110;SDS011;10216;42.658;23.248;2023-02-13T11:06:30;34.67;;;24.20;;
20110;SDS011;10216;42.658;23.248;2023-02-13T11:08:56;31.00;;;23.23;;
20110;SDS011;10216;42.658;23.248;2023-02-13T11:11:32;36.30;;;24.23;;
20110;SDS011;10216;42.658;23.248;2023-02-13T11:14:08;35.17;;;23.90;;
20110;SDS011;10216;42.658;23.248;2023-02-13T11:19:54;33.10;;;24.17;;
20110;SDS011;10216;42.658;23.248;2023-02-13T11:21:58;27.53;;;21.27;;
20110;SDS011;10216;42.658;23.248;2023-02-13T11:24:25;27.87;;;21.60;;
20110;SDS011;10216;42.658;23.248;2023-02-13T11:26:56;28.50;;;20.97;;
20110;SDS011;10216;42.658;23.248;2023-02-13T11:29:23;28.13;;;21.60;;
20110;SDS011;10216;42.658;23.248;2023-02-13T11:34:31;28.60;;;21.60;;
20110;SDS011;10216;42.658;23.248;2023-02-13T11:39:34;30.07;;;22.37;;
20110;SDS011;10216;42.658;23.248;2023-02-13T11:41:59;29.43;;;22.40;;
20110;SDS011;10216;42.658;23.248;2023-02-13T11:44:27;27.00;;;20.87;;
20110;SDS011;10216;42.658;23.248;2023-02-13T11:46:54;28.53;;;22.23;;
20110;SDS011;10216;42.658;23.248;2023-02-13T11:51:46;27.80;;;21.70;;
20110;SDS011;10216;42.658;23.248;2023-02-13T11:54:31;29.20;;;21.20;;
20110;SDS011;10216;42.658;23.248;2023-02-13T11:56:59;27.30;;;19.87;;
20110;SDS011;10216;42.658;23.248;2023-02-13T11:59:26;27.43;;;21.10;;
20110;SDS011;10216;42.658;23.248;2023-02-13T12:02:11;26.07;;;20.47;;
20110;SDS011;10216;42.658;23.248;2023-02-13T12:04:37;25.40;;;20.97;;
20110;SDS011;10216;42.658;23.248;2023-02-13T12:09:34;24.83;;;20.33;;
20110;SDS011;10216;42.658;23.248;2023-02-13T12:12:00;25.33;;;21.30;;
20110;SDS011;10216;42.658;23.248;2023-02-13T12:14:31;26.10;;;21.43;;
20110;SDS011;10216;42.658;23.248;2023-02-13T12:16:59;26.93;;;21.93;;
20110;SDS011;10216;42.658;23.248;2023-02-13T12:19:32;25.23;;;21.07;;
20110;SDS011;10216;42.658;23.248;2023-02-13T12:34:51;20.87;;;17.80;;
20110;SDS011;10216;42.658;23.248;2023-02-13T12:37:42;22.53;;;19.00;;
20110;SDS011;10216;42.658;23.248;2023-02-13T12:50:27;23.73;;;19.80;;
20110;SDS011;10216;42.658;23.248;2023-02-13T13:05:46;22.73;;;18.63;;
20110;SDS011;10216;42.658;23.248;2023-02-13T13:14:12;18.93;;;16.20;;
20110;SDS011;10216;42.658;23.248;2023-02-13T13:21:40;21.77;;;17.23;;
20110;SDS011;10216;42.658;23.248;2023-02-13T13:26:43;21.17;;;17.87;;
20110;SDS011;10216;42.658;23.248;2023-02-13T13:29:11;20.30;;;17.20;;
20110;SDS011;10216;42.658;23.248;2023-02-13T13:31:39;20.70;;;17.37;;
20110;SDS011;10216;42.658;23.248;2023-02-13T13:34:06;23.57;;;18.43;;
20110;SDS011;10216;42.658;23.248;2023-02-13T13:39:11;21.90;;;17.77;;
20110;SDS011;10216;42.658;23.248;2023-02-13T13:41:44;20.83;;;16.43;;
20110;SDS011;10216;42.658;23.248;2023-02-13T13:44:36;20.50;;;16.30;;
20110;SDS011;10216;42.658;23.248;2023-02-13T13:47:11;20.57;;;16.70;;
20110;SDS011;10216;42.658;23.248;2023-02-13T13:49:59;19.87;;;15.90;;
20110;SDS011;10216;42.658;23.248;2023-02-13T13:52:28;23.77;;;15.53;;
20110;SDS011;10216;42.658;23.248;2023-02-13T13:54:56;24.43;;;16.60;;
20110;SDS011;10216;42.658;23.248;2023-02-13T14:04:43;29.57;;;20.77;;
20110;SDS011;10216;42.658;23.248;2023-02-13T14:07:24;24.00;;;16.13;;
20110;SDS011;10216;42.658;23.248;2023-02-13T14:09:49;23.20;;;16.73;;
20110;SDS011;10216;42.658;23.248;2023-02-13T14:12:58;21.83;;;14.70;;
20110;SDS011;10216;42.658;23.248;2023-02-13T14:15:03;21.27;;;14.93;;
20110;SDS011;10216;42.658;23.248;2023-02-13T14:20:19;22.07;;;14.77;;
20110;SDS011;10216;42.658;23.248;2023-02-13T14:22:45;22.13;;;14.93;;
20110;SDS011;10216;42.658;23.248;2023-02-13T14:25:20;32.33;;;20.47;;
20110;SDS011;10216;42.658;23.248;2023-02-13T14:27:54;20.97;;;14.97;;
20110;SDS011;10216;42.658;23.248;2023-02-13T14:30:27;21.03;;;14.23;;
20110;SDS011;10216;42.658;23.248;2023-02-13T14:32:53;24.17;;;15.53;;
20110;SDS011;10216;42.658;23.248;2023-02-13T14:37:54;21.10;;;15.13;;
20110;SDS011;10216;42.658;23.248;2023-02-13T14:42:47;22.30;;;14.77;;
20110;SDS011;10216;42.658;23.248;2023-02-13T14:45:16;24.60;;;15.37;;
20110;SDS011;10216;42.658;23.248;2023-02-13T14:47:43;25.23;;;16.47;;
20110;SDS011;10216;42.658;23.248;2023-02-13T14:50:51;25.13;;;15.73;;
20110;SDS011;10216;42.658;23.248;2023-02-13T14:52:58;22.00;;;14.90;;
20110;SDS011;10216;42.658;23.248;2023-02-13T14:57:58;19.53;;;14.37;;
20110;SDS011;10216;42.658;23.248;2023-02-13T15:00:38;32.30;;;20.80;;
20110;SDS011;10216;42.658;23.248;2023-02-13T15:03:10;31.83;;;20.90;;
20110;SDS011;10216;42.658;23.248;2023-02-13T15:05:36;25.47;;;17.63;;
20110;SDS011;10216;42.658;23.248;2023-02-13T15:08:21;26.03;;;17.47;;
20110;SDS011;10216;42.658;23.248;2023-02-13T15:10:49;24.50;;;16.87;;
20110;SDS011;10216;42.658;23.248;2023-02-13T15:15:40;19.33;;;13.57;;
20110;SDS011;10216;42.658;23.248;2023-02-13T15:18:10;24.27;;;15.17;;
20110;SDS011;10216;42.658;23.248;2023-02-13T15:20:40;21.90;;;14.60;;
20110;SDS011;10216;42.658;23.248;2023-02-13T15:23:07;21.97;;;14.20;;
20110;SDS011;10216;42.658;23.248;2023-02-13T15:25:38;21.47;;;14.77;;
20110;SDS011;10216;42.658;23.248;2023-02-13T15:28:04;22.10;;;14.93;;
20110;SDS011;10216;42.658;23.248;2023-02-13T15:30:30;23.10;;;12.67;;
20110;SDS011;10216;42.658;23.248;2023-02-13T15:32:57;22.37;;;14.20;;
20110;SDS011;10216;42.658;23.248;2023-02-13T15:35:29;21.13;;;13.27;;
20110;SDS011;10216;42.658;23.248;2023-02-13T15:37:55;20.50;;;13.67;;
20110;SDS011;10216;42.658;23.248;2023-02-13T15:40:21;22.50;;;14.33;;
20110;SDS011;10216;42.658;23.248;2023-02-13T15:42:48;19.80;;;13.60;;
20110;SDS011;10216;42.658;23.248;2023-02-13T15:45:17;20.23;;;13.67;;
20110;SDS011;10216;42.658;23.248;2023-02-13T15:47:43;18.13;;;13.17;;
20110;SDS011;10216;42.658;23.248;2023-02-13T15:52:46;19.03;;;13.10;;
20110;SDS011;10216;42.658;23.248;2023-02-13T15:55:19;19.13;;;12.80;;
20110;SDS011;10216;42.658;23.248;2023-02-13T15:57:45;22.50;;;13.47;;
20110;SDS011;10216;42.658;23.248;2023-02-13T16:00:52;18.13;;;12.87;;
20110;SDS011;10216;42.658;23.248;2023-02-13T16:02:59;21.13;;;13.37;;
20110;SDS011;10216;42.658;23.248;2023-02-13T16:05:26;21.43;;;13.10;;
20110;SDS011;10216;42.658;23.248;2023-02-13T16:07:53;20.67;;;13.47;;
20110;SDS011;10216;42.658;23.248;2023-02-13T16:13:14;21.33;;;14.77;;
20110;SDS011;10216;42.658;23.248;2023-02-13T16:15:40;21.43;;;14.23;;
20110;SDS011;10216;42.658;23.248;2023-02-13T16:18:10;19.57;;;13.43;;
20110;SDS011;10216;42.658;23.248;2023-02-13T16:20:41;24.07;;;15.87;;
20110;SDS011;10216;42.658;23.248;2023-02-13T16:23:12;28.63;;;17.90;;
20110;SDS011;10216;42.658;23.248;2023-02-13T16:25:40;38.27;;;23.63;;
20110;SDS011;10216;42.658;23.248;2023-02-13T16:30:34;36.57;;;21.50;;
20110;SDS011;10216;42.658;23.248;2023-02-13T16:35:39;21.63;;;15.47;;
20110;SDS011;10216;42.658;23.248;2023-02-13T16:40:49;22.67;;;14.90;;
20110;SDS011;10216;42.658;23.248;2023-02-13T16:48:35;26.10;;;17.30;;
20110;SDS011;10216;42.658;23.248;2023-02-13T16:51:00;27.07;;;17.40;;
20110;SDS011;10216;42.658;23.248;2023-02-13T16:53:26;25.83;;;17.27;;
20110;SDS011;10216;42.658;23.248;2023-02-13T16:55:57;29.63;;;18.30;;
20110;SDS011;10216;42.658;23.248;2023-02-13T16:58:23;35.33;;;22.77;;
20110;SDS011;10216;42.658;23.248;2023-02-13T17:00:49;31.17;;;19.20;;
20110;SDS011;10216;42.658;23.248;2023-02-13T17:03:15;32.33;;;20.70;;
20110;SDS011;10216;42.658;23.248;2023-02-13T17:05:40;28.97;;;19.70;;